Yampa, Colorado
Current Conditions -  °F | °C
As of 12:35 AM on Sunday 23 Nov 2014 (Local Time) from KSBS Reporting Station
Overcast Overcast  
Wind Chill: 23°   Ceiling: 200
Heat Index: 29°   Visibility: 1.5mi
Dew Point: 29°   Wind: 6mph
Humidity: 98%   Direction: 200°SSW
Pressure: 29.76"   Gusts: NA
Location:  40.15°N, 106.91°W
Report Text: KSBS 230735Z AUTO 20005KT 1 1/2SM OVC002 M01/M02 A2976 RMK AO1 T10151018
Loading
Personal Weather Stations






























Interactive Weather Map New forecast layout! Learn more

10-Day Weather Forecast

Advertisements
Track Severe Weather on mobile